Search for airport 
image banner adimage banner adimage banner ad
image banner ad

13PA - Rigrtona

Located in Tidioute, United States

ICAO - 13PA, IATA -

Data provided by Airmate  

General information

Coordinates: N41°40'57" W79°27'11"
Elevation is 1703 feet MSL.
Magnetic variation is -10° East
View others Airports in Pennsylvania

Operational data

Special qualification required
Current time UTC:
Current local time:
Weather at : KFKL - Venango Rgnl ( 48 km )
METAR: KFKL 091256Z AUTO 16005KT 10SM BKN065 OVC080 04/02 A3003 RMK AO2 SLP181 T00440017
TAF: KFKL 091120Z 0912/1012 14003KT P6SM -RA BKN050 FM091500 12007KT 5SM -RA BR OVC010 FM091700 06006KT 3SM RA BR OVC005 FM100100 02006KT 4SM -RA BR OVC005 FM100400 36004KT P6SM BKN006 FM100900 29005KT P6SM BKN010
View NOTAMs / SUP AIP / TFR affecting this airport [VIEW]
Communications frequencies: [VIEW]

Runways:

RWY identifierQFULength (ft)Width (ft)SurfaceLDA (ft)
1092°222550ASPH
28272°222550ASPH

Airport contact information

Address: Tidioute United States

Satellite view of 13PA